Dirgin, Texas
Current Conditions -  °F | °C
As of 11:53 PM on Wednesday 24 Dec 2014 (Local Time) from KGGG Reporting Station
Clear Clear  
Wind Chill: 29°   Ceiling: Unl
Heat Index: 34°   Visibility: 10mi
Dew Point: 30°   Wind: 6mph
Humidity: 85%   Direction: 180°S
Pressure: 30.05"   Gusts: NA
Location:  32.3175°N, 94.6057°W
Report Text: KGGG 250553Z AUTO 18005KT 10SM CLR 01/M01 A3005 RMK AO2 SLP179 T00111011 10083 20006 401060006 58006
Loading
Personal Weather Stations






























Interactive Weather Map New forecast layout! Learn more

10-Day Weather Forecast

Advertisements
Track Severe Weather on mobile